Time;durP1;ratioP1;P1;durP2;ratioP2;P2;SDS_P1;SDS_P2;PMS_P1;PMS_P2;Temp;Humidity;BMP_temperature;BMP_pressure;BME280_temperature;BME280_humidity;BME280_pressure;Samples;Min_cycle;Max_cycle;Signal;HPM_P1;HPM_P2
2024/01/02 00:01:41;;;;;;;9.80;4.07;;;23.10;99.90;;;;;;5011928;28;20117;-48
2024/01/02 00:04:07;;;;;;;13.00;3.60;;;23.10;99.90;;;;;;5000798;28;20034;-52
2024/01/02 00:06:33;;;;;;;14.75;4.35;;;23.00;99.90;;;;;;5003655;28;20117;-50
2024/01/02 00:08:59;;;;;;;10.38;4.20;;;23.00;99.90;;;;;;5007714;28;20040;-50
2024/01/02 00:11:25;;;;;;;7.68;3.50;;;23.00;99.90;;;;;;5011223;28;20041;-48
2024/01/02 00:13:51;;;;;;;8.55;3.75;;;23.00;99.90;;;;;;5009785;28;20034;-50
2024/01/02 00:16:17;;;;;;;9.63;4.45;;;23.00;99.90;;;;;;5001695;28;20030;-49
2024/01/02 00:18:43;;;;;;;7.72;3.65;;;23.00;99.90;;;;;;5013978;28;20113;-48
2024/01/02 00:21:09;;;;;;;11.00;3.97;;;23.00;99.90;;;;;;5008717;28;20498;-48
2024/01/02 00:23:34;;;;;;;6.70;3.47;;;23.00;99.90;;;;;;4999111;28;20093;-50
2024/01/02 00:26:00;;;;;;;7.20;3.78;;;22.90;99.90;;;;;;5003515;28;20034;-51
2024/01/02 00:28:26;;;;;;;8.98;4.30;;;23.00;99.90;;;;;;4992872;28;20104;-49
2024/01/02 00:30:52;;;;;;;6.55;4.03;;;22.90;99.90;;;;;;4993900;28;20031;-48
2024/01/02 00:33:18;;;;;;;5.13;3.58;;;22.90;99.90;;;;;;4991916;28;20033;-49
2024/01/02 00:35:43;;;;;;;4.72;3.22;;;22.90;99.90;;;;;;5006774;28;20028;-48
2024/01/02 00:38:09;;;;;;;8.48;3.65;;;22.90;99.90;;;;;;5006335;28;20019;-51
2024/01/02 00:40:35;;;;;;;10.68;3.63;;;22.90;99.90;;;;;;5006044;28;20025;-52
2024/01/02 00:43:01;;;;;;;7.82;4.20;;;22.90;99.90;;;;;;4992447;28;20056;-52
2024/01/02 00:45:27;;;;;;;7.10;3.95;;;22.90;99.90;;;;;;4997507;28;20025;-50
2024/01/02 00:47:53;;;;;;;11.43;3.53;;;22.90;99.90;;;;;;5002761;28;20038;-48
2024/01/02 00:50:21;;;;;;;12.80;3.58;;;22.80;99.90;;;;;;5010906;28;20026;-48
2024/01/02 00:52:47;;;;;;;8.65;3.83;;;22.80;99.90;;;;;;4996205;28;20092;-47
2024/01/02 00:55:13;;;;;;;6.97;4.03;;;22.80;99.90;;;;;;4993338;28;20026;-49
2024/01/02 00:57:39;;;;;;;8.18;3.72;;;22.80;99.90;;;;;;4995134;28;20031;-48
2024/01/02 01:02:32;;;;;;;7.13;3.65;;;22.80;99.90;;;;;;5003634;28;20097;-57
2024/01/02 01:04:58;;;;;;;5.50;3.40;;;22.80;99.90;;;;;;5011570;28;20466;-56
2024/01/02 01:07:25;;;;;;;6.45;3.40;;;22.80;99.90;;;;;;4999407;28;20049;-54
2024/01/02 01:09:50;;;;;;;6.28;3.20;;;22.80;99.90;;;;;;5010306;28;20030;-55
2024/01/02 01:12:16;;;;;;;6.75;3.58;;;22.70;99.90;;;;;;5006156;28;20331;-54
2024/01/02 01:14:42;;;;;;;7.57;3.13;;;22.80;99.90;;;;;;5011432;28;20040;-53
2024/01/02 01:17:09;;;;;;;5.50;3.47;;;22.70;99.90;;;;;;4999011;28;20029;-55
2024/01/02 01:19:36;;;;;;;6.38;3.33;;;22.70;99.90;;;;;;5006512;28;20109;-56
2024/01/02 01:22:02;;;;;;;5.28;3.53;;;22.70;99.90;;;;;;5008635;28;20033;-54
2024/01/02 01:24:28;;;;;;;6.53;3.35;;;22.70;99.90;;;;;;5004796;28;20022;-53
2024/01/02 01:26:54;;;;;;;4.68;3.10;;;22.70;99.90;;;;;;5010738;28;20014;-53
2024/01/02 01:29:20;;;;;;;12.57;3.55;;;22.70;99.90;;;;;;5011540;28;20022;-53
2024/01/02 01:31:46;;;;;;;6.70;3.08;;;22.70;99.90;;;;;;4997730;28;20018;-56
2024/01/02 01:34:12;;;;;;;7.88;3.53;;;22.70;99.90;;;;;;5010449;28;20045;-55
2024/01/02 01:36:38;;;;;;;8.95;3.30;;;22.70;99.90;;;;;;5006793;28;20402;-54
2024/01/02 01:39:04;;;;;;;6.47;2.92;;;22.70;99.90;;;;;;5010391;28;20026;-53
2024/01/02 01:41:30;;;;;;;6.13;3.15;;;22.70;99.90;;;;;;5012714;28;20018;-52
2024/01/02 01:43:57;;;;;;;7.22;2.75;;;22.70;99.90;;;;;;5005472;28;20108;-52
2024/01/02 01:46:26;;;;;;;7.85;3.17;;;22.70;99.90;;;;;;5013754;28;20040;-54
2024/01/02 01:48:52;;;;;;;4.30;3.40;;;22.70;99.90;;;;;;5006691;28;20033;-54
2024/01/02 01:51:18;;;;;;;5.53;3.00;;;22.70;99.90;;;;;;5012584;28;20421;-54
2024/01/02 01:53:45;;;;;;;5.18;2.90;;;22.60;99.90;;;;;;5010178;28;20034;-53
2024/01/02 01:56:12;;;;;;;4.75;2.92;;;22.60;99.90;;;;;;5012979;28;20024;-53
2024/01/02 01:58:38;;;;;;;5.30;2.97;;;22.70;99.90;;;;;;5006724;28;20095;-56
2024/01/02 02:01:04;;;;;;;4.82;3.03;;;22.60;99.90;;;;;;5023576;23;20536;-53
2024/01/02 02:03:31;;;;;;;6.50;3.15;;;22.70;99.90;;;;;;5014426;28;20061;-53
2024/01/02 02:05:57;;;;;;;3.38;2.50;;;22.60;99.90;;;;;;5004122;28;20057;-53
2024/01/02 02:08:23;;;;;;;4.20;2.83;;;22.60;99.90;;;;;;5007742;28;20040;-54
2024/01/02 02:10:49;;;;;;;4.07;3.03;;;22.60;99.90;;;;;;5006878;28;20085;-53
2024/01/02 02:13:16;;;;;;;3.95;2.78;;;22.60;99.90;;;;;;5013677;28;20034;-53
2024/01/02 02:15:42;;;;;;;4.67;2.90;;;22.60;99.90;;;;;;4998178;28;20018;-51
2024/01/02 02:18:09;;;;;;;4.32;2.70;;;22.60;99.90;;;;;;4998682;28;20331;-52
2024/01/02 02:20:35;;;;;;;4.47;2.70;;;22.60;99.90;;;;;;5014063;28;20037;-51
2024/01/02 02:23:00;;;;;;;4.60;2.83;;;22.60;99.90;;;;;;5007502;28;20034;-52
2024/01/02 02:25:27;;;;;;;7.40;2.88;;;22.50;99.90;;;;;;5007543;28;20030;-52
2024/01/02 02:27:53;;;;;;;6.82;3.10;;;22.50;99.90;;;;;;5002167;28;20477;-50
2024/01/02 02:30:19;;;;;;;4.95;2.55;;;22.50;99.90;;;;;;5002509;28;20199;-53
2024/01/02 02:32:45;;;;;;;10.18;2.90;;;22.50;99.90;;;;;;5012912;28;20113;-52
2024/01/02 02:35:11;;;;;;;4.93;3.25;;;22.50;99.90;;;;;;5012375;28;20122;-52
2024/01/02 02:37:37;;;;;;;4.68;2.80;;;22.50;99.90;;;;;;5004364;28;20483;-53
2024/01/02 02:40:03;;;;;;;3.20;2.35;;;22.50;99.90;;;;;;5008457;28;20030;-51
2024/01/02 02:42:29;;;;;;;5.65;2.47;;;22.40;99.90;;;;;;5004359;28;20105;-52
2024/01/02 02:44:55;;;;;;;3.22;2.38;;;22.50;99.90;;;;;;5012904;28;20099;-51
2024/01/02 02:47:22;;;;;;;7.90;2.95;;;22.40;99.90;;;;;;5009287;28;20053;-51
2024/01/02 02:49:49;;;;;;;5.72;2.53;;;22.40;99.90;;;;;;5005894;28;20367;-51
2024/01/02 02:52:15;;;;;;;;;;;22.40;99.90;;;;;;5008538;28;20026;-51
2024/01/02 02:54:42;;;;;;;5.20;2.60;;;22.40;99.90;;;;;;5012867;28;19916;-51
2024/01/02 02:57:07;;;;;;;4.90;2.60;;;22.40;99.90;;;;;;5011180;28;20021;-52
2024/01/02 02:59:33;;;;;;;4.75;2.85;;;22.40;99.90;;;;;;5007404;28;20029;-52
2024/01/02 03:01:59;;;;;;;6.80;2.10;;;22.30;99.90;;;;;;5005016;28;20100;-52
2024/01/02 03:04:25;;;;;;;5.60;1.83;;;22.30;99.90;;;;;;5010069;28;20471;-54
2024/01/02 03:06:50;;;;;;;4.07;2.60;;;22.30;99.90;;;;;;5012022;28;20017;-52
2024/01/02 03:09:16;;;;;;;7.63;2.45;;;22.30;99.90;;;;;;4994617;28;20352;-53
2024/01/02 03:11:44;;;;;;;5.82;2.30;;;22.20;99.90;;;;;;5001544;28;20033;-54
2024/01/02 03:14:10;;;;;;;3.65;1.75;;;22.20;99.90;;;;;;5006145;28;20030;-53
2024/01/02 03:16:37;;;;;;;;;;;22.20;99.90;;;;;;4998590;28;20119;-53
2024/01/02 03:19:03;;;;;;;3.35;2.13;;;22.20;99.90;;;;;;5012352;28;20377;-52
2024/01/02 03:21:29;;;;;;;4.60;2.85;;;22.20;99.90;;;;;;5012721;28;20037;-53
2024/01/02 03:23:55;;;;;;;8.95;3.08;;;22.20;99.90;;;;;;5006052;28;20061;-53
2024/01/02 03:26:21;;;;;;;5.00;2.33;;;22.10;99.90;;;;;;5009095;28;20467;-52
2024/01/02 03:28:47;;;;;;;9.63;2.50;;;22.10;99.90;;;;;;5008446;28;20113;-52
2024/01/02 03:31:13;;;;;;;4.50;2.30;;;22.10;99.90;;;;;;5000141;28;20105;-50
2024/01/02 03:33:39;;;;;;;4.13;2.53;;;22.10;99.90;;;;;;5007594;28;20386;-52
2024/01/02 03:36:12;;;;;;;8.23;2.90;;;22.10;99.90;;;;;;5009323;28;20018;-53
2024/01/02 03:38:38;;;;;;;3.97;2.10;;;22.10;99.90;;;;;;5005092;28;20512;-52
2024/01/02 03:41:03;;;;;;;3.50;2.10;;;22.00;99.90;;;;;;4992257;28;20030;-52
2024/01/02 03:43:29;;;;;;;5.65;2.22;;;22.00;99.90;;;;;;4998433;28;20096;-52
2024/01/02 03:45:55;;;;;;;6.28;2.72;;;22.00;99.90;;;;;;5012893;28;20025;-52
2024/01/02 03:48:23;;;;;;;4.57;2.08;;;22.00;99.90;;;;;;5011267;28;20053;-52
2024/01/02 03:50:49;;;;;;;4.40;2.67;;;22.00;99.90;;;;;;5012642;28;20014;-52
2024/01/02 03:53:15;;;;;;;6.82;2.47;;;22.00;99.90;;;;;;5005723;28;20050;-52
2024/01/02 03:55:41;;;;;;;4.57;1.83;;;22.00;99.90;;;;;;5006971;28;20022;-53
2024/01/02 03:58:06;;;;;;;6.47;2.40;;;21.90;99.90;;;;;;5007241;28;20380;-52
2024/01/02 04:00:33;;;;;;;6.25;2.15;;;21.90;99.90;;;;;;4998695;28;20061;-53
2024/01/02 04:02:59;;;;;;;7.88;2.08;;;21.90;99.90;;;;;;5006905;28;20030;-52
2024/01/02 04:05:25;;;;;;;3.35;1.83;;;21.90;99.90;;;;;;5003623;28;20033;-52
2024/01/02 04:07:51;;;;;;;6.85;1.70;;;21.90;99.90;;;;;;5010658;28;20052;-51
2024/01/02 04:10:17;;;;;;;3.33;1.90;;;21.90;99.90;;;;;;5012561;28;20092;-52
2024/01/02 04:12:43;;;;;;;4.57;2.17;;;21.80;99.90;;;;;;5001063;28;20033;-54
2024/01/02 04:15:09;;;;;;;4.30;1.95;;;21.80;99.90;;;;;;5012501;28;20034;-52
2024/01/02 04:17:35;;;;;;;3.90;2.20;;;21.80;99.90;;;;;;5012312;28;20018;-52
2024/01/02 04:20:00;;;;;;;3.58;1.95;;;21.80;99.90;;;;;;5011033;28;20596;-52
2024/01/02 04:22:26;;;;;;;4.00;1.65;;;21.80;99.90;;;;;;5012401;28;20497;-52
2024/01/02 04:24:52;;;;;;;3.80;2.15;;;21.80;99.90;;;;;;5003220;28;20045;-52
2024/01/02 04:27:18;;;;;;;4.43;2.00;;;21.80;99.90;;;;;;5012336;28;20029;-51
2024/01/02 04:29:44;;;;;;;4.38;1.92;;;21.80;99.90;;;;;;5009011;28;20080;-51
2024/01/02 04:32:10;;;;;;;3.88;2.58;;;21.80;99.90;;;;;;4992727;28;20073;-53
2024/01/02 04:34:36;;;;;;;4.03;2.10;;;21.70;99.90;;;;;;5005424;28;20049;-54
2024/01/02 04:37:02;;;;;;;5.22;2.00;;;21.80;99.90;;;;;;5009326;28;20076;-54
2024/01/02 04:39:28;;;;;;;3.47;1.70;;;21.70;99.90;;;;;;5003327;28;20087;-53
2024/01/02 04:41:53;;;;;;;2.67;1.60;;;21.70;99.90;;;;;;5012005;28;20022;-54
2024/01/02 04:44:19;;;;;;;3.83;1.80;;;21.70;99.90;;;;;;5007662;28;20038;-54
2024/01/02 04:46:46;;;;;;;5.22;1.80;;;21.70;99.90;;;;;;5011914;28;20033;-52
2024/01/02 04:49:13;;;;;;;4.82;2.15;;;21.70;99.90;;;;;;5009199;28;20068;-52
2024/01/02 04:51:39;;;;;;;5.97;2.22;;;21.70;99.90;;;;;;5011975;28;20405;-52
2024/01/02 04:54:04;;;;;;;8.85;1.77;;;21.60;99.90;;;;;;5002860;28;20042;-52
2024/01/02 04:56:30;;;;;;;4.78;2.17;;;21.70;99.90;;;;;;5004171;28;20041;-53
2024/01/02 04:58:56;;;;;;;3.50;1.73;;;21.60;99.90;;;;;;5003011;28;20109;-52
2024/01/02 05:01:22;;;;;;;3.05;1.90;;;21.60;99.90;;;;;;5009916;28;20108;-50
2024/01/02 05:03:47;;;;;;;3.25;1.92;;;21.60;99.90;;;;;;5003053;28;20029;-52
2024/01/02 05:06:13;;;;;;;4.85;1.80;;;21.60;99.90;;;;;;5009181;28;20022;-52
2024/01/02 05:08:39;;;;;;;3.42;1.85;;;21.60;99.90;;;;;;4998566;28;20034;-53
2024/01/02 05:11:05;;;;;;;2.33;1.50;;;21.60;99.90;;;;;;5007256;28;20470;-52
2024/01/02 05:13:30;;;;;;;2.67;2.10;;;21.50;99.90;;;;;;5004705;28;20462;-52
2024/01/02 05:15:56;;;;;;;4.93;1.83;;;21.50;99.90;;;;;;5007636;28;20386;-52
2024/01/02 05:18:22;;;;;;;3.60;1.92;;;21.50;99.90;;;;;;5012242;28;20077;-52
2024/01/02 05:20:48;;;;;;;3.17;1.88;;;21.50;99.90;;;;;;5006617;28;20098;-52
2024/01/02 05:23:14;;;;;;;2.63;1.90;;;21.50;99.90;;;;;;5013711;28;20029;-51
2024/01/02 05:25:40;;;;;;;3.33;1.80;;;21.50;99.90;;;;;;4996924;28;20049;-51
2024/01/02 05:28:06;;;;;;;3.60;2.08;;;21.50;99.90;;;;;;5010927;28;20026;-52
2024/01/02 05:30:32;;;;;;;2.83;1.92;;;21.40;99.90;;;;;;5003413;28;20083;-53
2024/01/02 05:32:57;;;;;;;2.28;1.65;;;21.40;99.90;;;;;;5009806;28;20046;-53
2024/01/02 05:35:23;;;;;;;3.67;1.83;;;21.40;99.90;;;;;;5001780;28;20026;-51
2024/01/02 05:37:49;;;;;;;3.47;2.03;;;21.40;99.90;;;;;;5005784;28;20029;-51
2024/01/02 05:40:15;;;;;;;2.92;1.63;;;21.40;99.90;;;;;;5012914;28;20022;-51
2024/01/02 05:42:40;;;;;;;2.08;1.75;;;21.40;99.90;;;;;;5014878;28;20018;-51
2024/01/02 05:45:07;;;;;;;3.15;1.65;;;21.40;99.90;;;;;;5010851;28;20033;-51
2024/01/02 05:47:33;;;;;;;3.63;1.90;;;21.40;99.90;;;;;;5018777;28;20060;-51
2024/01/02 05:49:58;;;;;;;3.03;1.73;;;21.40;99.90;;;;;;5015619;28;20029;-51
2024/01/02 05:52:24;;;;;;;3.10;2.05;;;21.40;99.90;;;;;;5014910;28;20026;-52
2024/01/02 05:54:50;;;;;;;2.67;1.85;;;21.40;99.90;;;;;;5006108;28;20493;-50
2024/01/02 05:57:16;;;;;;;2.28;1.40;;;21.30;99.90;;;;;;5008666;28;20022;-50
2024/01/02 05:59:41;;;;;;;5.15;1.75;;;21.30;99.90;;;;;;5008506;28;20133;-50
2024/01/02 06:02:07;;;;;;;4.07;1.70;;;21.30;99.90;;;;;;5013512;28;20046;-51
2024/01/02 06:04:33;;;;;;;2.85;1.80;;;21.30;99.90;;;;;;5012222;28;20062;-50
2024/01/02 06:06:59;;;;;;;2.10;1.90;;;21.30;99.90;;;;;;5011948;28;20026;-50
2024/01/02 06:09:25;;;;;;;2.63;1.90;;;21.30;99.90;;;;;;5011168;28;20548;-51
2024/01/02 06:11:51;;;;;;;4.55;2.30;;;21.30;99.90;;;;;;5013935;28;20125;-51
2024/01/02 06:14:18;;;;;;;4.00;1.95;;;21.20;99.90;;;;;;5012519;28;20120;-51
2024/01/02 06:16:44;;;;;;;3.67;1.90;;;21.30;99.90;;;;;;5014555;28;20432;-52
2024/01/02 06:19:09;;;;;;;4.38;1.80;;;21.20;99.90;;;;;;5011777;28;20038;-52
2024/01/02 06:21:35;;;;;;;2.45;1.70;;;21.20;99.90;;;;;;5014476;28;20489;-52
2024/01/02 06:24:01;;;;;;;4.75;2.15;;;21.20;99.90;;;;;;5013062;28;20371;-51
2024/01/02 06:26:28;;;;;;;2.78;2.08;;;21.20;99.90;;;;;;5005313;28;20025;-51
2024/01/02 06:28:54;;;;;;;3.03;1.85;;;21.20;99.90;;;;;;5010723;28;20091;-51
2024/01/02 06:31:20;;;;;;;3.40;2.15;;;21.20;99.90;;;;;;5010815;28;20465;-51
2024/01/02 06:33:46;;;;;;;2.45;1.60;;;21.20;99.90;;;;;;5005725;28;20038;-51
2024/01/02 06:36:12;;;;;;;5.82;1.77;;;21.20;99.90;;;;;;4995038;28;20018;-52
2024/01/02 06:38:38;;;;;;;3.17;2.33;;;21.10;99.90;;;;;;4997235;28;20110;-51
2024/01/02 06:41:04;;;;;;;3.78;2.20;;;21.10;99.90;;;;;;5003485;28;20398;-52
2024/01/02 06:43:30;;;;;;;2.58;2.03;;;21.20;99.90;;;;;;5007281;28;20022;-50
2024/01/02 06:45:56;;;;;;;3.70;1.95;;;21.20;99.90;;;;;;5013051;28;20498;-51
2024/01/02 06:48:22;;;;;;;3.50;2.10;;;21.10;99.90;;;;;;5023812;28;20025;-51
2024/01/02 06:50:48;;;;;;;2.85;1.40;;;21.10;99.90;;;;;;5014453;28;20419;-51
2024/01/02 06:53:14;;;;;;;2.47;2.13;;;21.10;99.90;;;;;;5013800;28;20478;-49
2024/01/02 06:55:40;;;;;;;2.45;1.70;;;21.10;99.90;;;;;;5003502;28;20041;-50
2024/01/02 06:58:06;;;;;;;7.22;2.30;;;21.10;99.90;;;;;;5014060;28;20022;-51
2024/01/02 07:00:32;;;;;;;3.10;2.03;;;21.10;99.90;;;;;;5010623;28;20593;-50
2024/01/02 07:02:59;;;;;;;3.92;1.90;;;21.10;99.90;;;;;;5012805;28;20036;-51
2024/01/02 07:05:24;;;;;;;4.60;1.90;;;21.10;99.90;;;;;;5010059;28;20041;-50
2024/01/02 07:07:50;;;;;;;5.43;1.70;;;21.00;99.90;;;;;;5006305;28;20122;-50
2024/01/02 07:10:16;;;;;;;4.50;1.75;;;21.00;99.90;;;;;;5009499;28;20052;-51
2024/01/02 07:12:42;;;;;;;6.25;1.90;;;21.00;99.90;;;;;;5013157;28;20026;-49
2024/01/02 07:15:08;;;;;;;3.05;1.90;;;21.00;99.90;;;;;;5007750;28;20462;-50
2024/01/02 07:17:34;;;;;;;3.35;1.75;;;21.00;99.90;;;;;;5013394;28;20528;-51
2024/01/02 07:20:00;;;;;;;2.40;1.75;;;21.00;99.90;;;;;;5006865;28;20033;-51
2024/01/02 07:22:28;;;;;;;2.60;2.00;;;21.00;99.90;;;;;;5013382;28;20022;-51
2024/01/02 07:24:55;;;;;;;2.25;1.70;;;21.00;99.90;;;;;;5005323;28;20030;-51
2024/01/02 07:27:21;;;;;;;2.65;1.90;;;21.00;99.90;;;;;;5002876;28;20454;-51
2024/01/02 07:29:47;;;;;;;5.27;1.90;;;21.00;99.90;;;;;;5007032;28;20035;-50
2024/01/02 07:32:14;;;;;;;2.40;1.83;;;21.00;99.90;;;;;;5007536;28;20270;-51
2024/01/02 07:34:39;;;;;;;3.85;1.92;;;21.00;99.90;;;;;;5007251;28;20537;-51
2024/01/02 07:37:05;;;;;;;7.05;2.47;;;21.00;99.90;;;;;;5008987;28;20196;-51
2024/01/02 07:39:31;;;;;;;5.38;2.22;;;20.90;99.90;;;;;;5004645;28;20347;-51
2024/01/02 07:41:57;;;;;;;2.22;1.67;;;21.00;99.90;;;;;;5010581;28;20045;-51
2024/01/02 07:44:23;;;;;;;4.05;2.10;;;20.90;99.90;;;;;;5004916;28;20530;-50
2024/01/02 07:46:49;;;;;;;2.88;1.75;;;20.90;99.90;;;;;;5021069;28;20060;-51
2024/01/02 07:49:16;;;;;;;3.17;1.83;;;20.90;99.90;;;;;;5022238;28;20056;-50
2024/01/02 07:51:42;;;;;;;2.85;1.65;;;20.90;99.90;;;;;;5002937;28;20133;-50
2024/01/02 07:54:08;;;;;;;2.88;2.00;;;20.90;99.90;;;;;;5012118;28;20501;-49
2024/01/02 07:56:34;;;;;;;4.22;1.65;;;20.90;99.90;;;;;;5000543;28;20018;-49
2024/01/02 07:59:00;;;;;;;2.85;1.73;;;20.90;99.90;;;;;;5012880;28;20063;-50
2024/01/02 08:01:26;;;;;;;2.40;1.63;;;20.90;99.90;;;;;;4998132;28;20042;-50
2024/01/02 08:03:52;;;;;;;4.45;2.10;;;21.00;99.90;;;;;;5010839;28;20057;-50
2024/01/02 08:06:18;;;;;;;2.50;1.65;;;20.90;99.90;;;;;;5011554;28;20026;-49
2024/01/02 08:08:44;;;;;;;3.72;1.55;;;21.00;99.90;;;;;;5004793;28;20022;-50
2024/01/02 08:11:09;;;;;;;4.65;1.90;;;21.00;99.90;;;;;;5009916;28;20061;-50
2024/01/02 08:13:35;;;;;;;2.80;1.80;;;21.00;99.90;;;;;;5004151;28;20026;-50
2024/01/02 08:16:04;;;;;;;4.93;1.75;;;21.00;99.90;;;;;;5004757;28;20037;-50
2024/01/02 08:18:30;;;;;;;3.53;1.77;;;21.00;99.90;;;;;;5011783;28;20022;-50
2024/01/02 08:20:57;;;;;;;2.95;1.48;;;21.10;99.90;;;;;;5005093;28;20482;-50
2024/01/02 08:23:24;;;;;;;2.78;1.63;;;21.10;99.90;;;;;;5003062;28;20402;-52
2024/01/02 08:25:50;;;;;;;2.33;1.50;;;21.10;99.90;;;;;;5008372;28;20022;-52
2024/01/02 08:28:18;;;;;;;3.63;1.70;;;21.10;99.90;;;;;;5000877;28;20029;-51
2024/01/02 08:30:44;;;;;;;2.88;1.75;;;21.10;99.90;;;;;;5005269;28;20032;-52
2024/01/02 08:33:09;;;;;;;3.15;2.00;;;21.10;99.90;;;;;;5000424;28;20105;-51
2024/01/02 08:35:36;;;;;;;1.98;1.63;;;21.20;99.90;;;;;;5011449;28;20028;-52
2024/01/02 08:38:02;;;;;;;2.63;1.83;;;21.10;99.90;;;;;;5001009;28;20026;-50
2024/01/02 08:40:28;;;;;;;3.63;1.75;;;21.20;99.90;;;;;;5009469;28;20021;-49
2024/01/02 08:42:54;;;;;;;3.65;1.60;;;21.20;99.90;;;;;;5010960;28;20038;-51
2024/01/02 08:45:20;;;;;;;2.78;1.70;;;21.20;99.90;;;;;;5006348;28;20168;-52
2024/01/02 08:47:45;;;;;;;4.47;1.60;;;21.20;99.90;;;;;;5013927;28;20030;-50
2024/01/02 08:50:11;;;;;;;2.03;1.40;;;21.20;99.90;;;;;;5018797;28;20026;-48
2024/01/02 08:52:37;;;;;;;2.90;1.88;;;21.30;99.90;;;;;;4998376;28;20041;-51
2024/01/02 08:55:03;;;;;;;3.38;1.50;;;21.30;99.90;;;;;;5009990;28;20021;-50
2024/01/02 08:57:30;;;;;;;7.05;2.38;;;21.30;99.90;;;;;;5005481;28;20096;-50
2024/01/02 08:59:56;;;;;;;4.20;2.03;;;21.40;99.90;;;;;;5011263;28;20022;-52
2024/01/02 09:02:23;;;;;;;8.00;2.15;;;21.40;99.90;;;;;;4941092;28;1906378;-52
2024/01/02 09:04:49;;;;;;;2.78;1.88;;;21.50;99.90;;;;;;4999739;28;20024;-51
2024/01/02 09:07:15;;;;;;;2.05;1.65;;;21.50;99.90;;;;;;5009599;28;20026;-52
2024/01/02 09:09:40;;;;;;;3.22;1.70;;;21.50;99.90;;;;;;5004906;28;20056;-52
2024/01/02 09:12:08;;;;;;;4.00;1.83;;;21.60;99.90;;;;;;5010875;28;20026;-55
2024/01/02 09:14:36;;;;;;;2.92;2.03;;;21.60;99.90;;;;;;5020421;28;20486;-53
2024/01/02 09:17:03;;;;;;;2.72;1.60;;;21.60;99.90;;;;;;5000526;28;20061;-51
2024/01/02 09:19:29;;;;;;;3.00;1.42;;;21.70;99.90;;;;;;5018832;28;20045;-52
2024/01/02 09:21:54;;;;;;;4.97;1.80;;;21.70;99.90;;;;;;5007998;28;20017;-51
2024/01/02 09:24:21;;;;;;;4.90;1.95;;;21.70;99.90;;;;;;5005436;28;20038;-52
2024/01/02 09:26:51;;;;;;;3.03;1.77;;;21.80;99.90;;;;;;5009266;28;20022;-52
2024/01/02 09:29:17;;;;;;;12.65;2.42;;;21.80;99.90;;;;;;5002613;28;20026;-52
2024/01/02 09:31:44;;;;;;;2.78;1.88;;;21.80;99.90;;;;;;5011642;28;20367;-52
2024/01/02 09:34:10;;;;;;;16.55;2.72;;;21.80;99.90;;;;;;5003910;28;20490;-51
2024/01/02 09:36:37;;;;;;;4.75;2.65;;;21.90;99.90;;;;;;5011561;28;20026;-51
2024/01/02 09:39:03;;;;;;;5.55;1.95;;;21.90;99.90;;;;;;5000400;28;20042;-52
2024/01/02 09:41:32;;;;;;;6.18;1.73;;;22.00;99.90;;;;;;5004033;28;20041;-52
2024/01/02 09:44:26;;;;;;;6.68;2.25;;;22.00;99.90;;;;;;5001077;28;20169;-51
2024/01/02 09:47:08;;;;;;;4.00;2.00;;;22.00;99.90;;;;;;5008575;28;20045;-50
2024/01/02 09:49:52;;;;;;;9.55;2.03;;;22.10;99.90;;;;;;4998533;28;20110;-53
2024/01/02 09:52:53;;;;;;;11.95;1.92;;;22.20;99.90;;;;;;5000617;28;20022;-54
2024/01/02 09:55:29;;;;;;;5.63;1.33;;;22.10;99.90;;;;;;5006115;28;20037;-53
2024/01/02 09:57:55;;;;;;;5.93;1.50;;;22.20;99.90;;;;;;5005949;28;20034;-50
2024/01/02 10:00:32;;;;;;;5.20;1.63;;;22.20;99.90;;;;;;5011154;28;20022;-51
2024/01/02 10:03:04;;;;;;;3.55;1.65;;;22.30;99.90;;;;;;5012046;28;20037;-52
2024/01/02 10:05:46;;;;;;;4.57;1.85;;;22.30;99.90;;;;;;5001181;28;20026;-51
2024/01/02 10:08:40;;;;;;;3.78;1.67;;;22.40;99.90;;;;;;5013143;28;20068;-52
2024/01/02 10:11:30;;;;;;;190.02;17.60;;;22.40;99.90;;;;;;4998123;28;20026;-51
2024/01/02 10:14:02;;;;;;;88.80;9.88;;;22.50;99.90;;;;;;5003670;28;20403;-49
2024/01/02 10:16:34;;;;;;;198.10;16.75;;;22.50;99.90;;;;;;5011656;28;20029;-51
2024/01/02 10:19:15;;;;;;;65.57;6.72;;;22.50;99.90;;;;;;5003404;28;20113;-52
2024/01/02 10:21:56;;;;;;;50.85;4.90;;;22.60;99.90;;;;;;5008438;28;20042;-53
2024/01/02 10:24:52;;;;;;;35.40;4.53;;;22.60;99.90;;;;;;5009366;28;20092;-52
2024/01/02 10:27:45;;;;;;;38.43;4.13;;;22.60;99.90;;;;;;4991778;28;20074;-46
2024/01/02 10:30:12;;;;;;;30.55;4.25;;;22.70;99.90;;;;;;5011913;28;20062;-53
2024/01/02 10:32:40;;;;;;;26.45;3.53;;;22.70;99.90;;;;;;5013301;28;20021;-52
2024/01/02 10:35:21;;;;;;;24.48;3.30;;;22.70;99.90;;;;;;5004490;28;20040;-52
2024/01/02 10:38:12;;;;;;;30.15;3.70;;;22.80;99.90;;;;;;5011932;28;20026;-52
2024/01/02 10:40:43;;;;;;;18.95;3.35;;;22.80;99.90;;;;;;5008833;28;20482;-52
2024/01/02 10:43:30;;;;;;;18.20;3.22;;;22.90;99.90;;;;;;5012943;28;20061;-54
2024/01/02 10:45:56;;;;;;;20.25;3.55;;;22.90;99.90;;;;;;5005968;28;20489;-53
2024/01/02 10:48:44;;;;;;;18.58;3.30;;;23.00;99.90;;;;;;5014386;28;20058;-51
2024/01/02 10:51:27;;;;;;;18.45;3.20;;;23.10;99.90;;;;;;5013307;28;20170;-52
2024/01/02 10:54:10;;;;;;;21.58;3.47;;;23.20;99.90;;;;;;5003575;28;20042;-52
2024/01/02 10:56:59;;;;;;;12.73;2.92;;;23.20;99.90;;;;;;5012856;28;20022;-52
2024/01/02 10:59:47;;;;;;;20.48;3.55;;;23.20;99.90;;;;;;5000307;28;20081;-52
2024/01/02 11:02:37;;;;;;;16.90;3.38;;;23.30;99.90;;;;;;5013691;28;20038;-52
2024/01/02 11:05:25;;;;;;;15.68;2.78;;;23.40;99.90;;;;;;5011974;28;20400;-52
2024/01/02 11:08:03;;;;;;;21.23;3.70;;;23.40;99.90;;;;;;5012916;28;20083;-52
2024/01/02 11:10:33;;;;;;;20.63;3.97;;;23.40;99.90;;;;;;5003878;28;20022;-51
2024/01/02 11:13:05;;;;;;;15.68;2.80;;;23.50;99.90;;;;;;5010116;28;20383;-52
2024/01/02 11:15:35;;;;;;;12.07;3.05;;;23.50;99.90;;;;;;5003088;28;20026;-53
2024/01/02 11:18:06;;;;;;;12.50;3.00;;;23.50;99.90;;;;;;5012004;28;20544;-52
2024/01/02 11:20:50;;;;;;;10.15;2.60;;;23.60;99.90;;;;;;5012228;28;20025;-53
2024/01/02 11:23:18;;;;;;;15.48;3.30;;;23.60;99.90;;;;;;5008412;28;20027;-51
2024/01/02 11:26:04;;;;;;;16.98;3.30;;;23.70;99.90;;;;;;5013299;28;20022;-52
2024/01/02 11:28:32;;;;;;;12.35;2.95;;;23.70;99.90;;;;;;5001231;28;20122;-52
2024/01/02 11:31:01;;;;;;;10.07;2.95;;;23.70;99.90;;;;;;5013362;28;20026;-55
2024/01/02 11:33:44;;;;;;;11.40;3.38;;;23.80;99.90;;;;;;5010545;28;20034;-53
2024/01/02 11:36:34;;;;;;;7.97;2.42;;;23.80;99.90;;;;;;5012524;28;20156;-54
2024/01/02 11:39:12;;;;;;;9.30;3.38;;;23.80;99.90;;;;;;5009849;28;20125;-54
2024/01/02 11:42:09;;;;;;;6.30;2.20;;;23.80;99.90;;;;;;5013620;28;20049;-53
2024/01/02 11:45:06;;;;;;;7.25;3.22;;;23.90;99.90;;;;;;5004505;28;20032;-53
2024/01/02 11:47:38;;;;;;;7.68;2.85;;;23.90;99.90;;;;;;5014957;28;20030;-54
2024/01/02 11:50:07;;;;;;;7.72;3.10;;;23.90;99.90;;;;;;5009957;28;20026;-52
2024/01/02 11:52:55;;;;;;;8.93;3.00;;;24.00;99.90;;;;;;5000476;28;20113;-53
2024/01/02 11:55:24;;;;;;;;;;;24.00;99.90;;;;;;5018212;28;20536;-52
2024/01/02 11:57:54;;;;;;;7.35;2.90;;;24.00;99.90;;;;;;5009050;28;19906;-52
2024/01/02 12:00:29;;;;;;;15.75;3.08;;;24.00;99.90;;;;;;5004385;28;20041;-53
2024/01/02 12:03:07;;;;;;;9.35;3.30;;;24.10;99.90;;;;;;5010860;28;20104;-57
2024/01/02 12:05:47;;;;;;;7.75;2.80;;;24.10;99.90;;;;;;5005006;28;20038;-53
2024/01/02 12:08:17;;;;;;;7.63;3.08;;;24.10;99.90;;;;;;5012726;28;20053;-53
2024/01/02 12:10:51;;;;;;;7.35;3.28;;;24.20;99.90;;;;;;5007894;28;20049;-52
2024/01/02 12:13:51;;;;;;;6.07;2.95;;;24.20;99.90;;;;;;5011977;28;20092;-54
2024/01/02 12:16:19;;;;;;;8.48;2.90;;;24.20;99.90;;;;;;5008162;28;20030;-52
2024/01/02 12:18:48;;;;;;;14.90;3.80;;;24.20;99.90;;;;;;5007101;28;20077;-52
2024/01/02 12:21:21;;;;;;;13.55;4.05;;;24.20;99.90;;;;;;5003780;28;20475;-52
2024/01/02 12:23:49;;;;;;;8.02;2.97;;;24.30;99.90;;;;;;5010449;28;20088;-52
2024/01/02 12:26:20;;;;;;;7.93;3.05;;;24.30;99.90;;;;;;5019208;28;20025;-53
2024/01/02 12:28:46;;;;;;;11.13;3.88;;;24.30;99.90;;;;;;5006953;28;20026;-52
2024/01/02 12:31:45;;;;;;;7.05;2.85;;;24.40;99.90;;;;;;5000745;28;20112;-52
2024/01/02 12:34:24;;;;;;;7.50;3.42;;;24.40;99.90;;;;;;5012700;28;20120;-52
2024/01/02 12:37:14;;;;;;;7.57;4.05;;;24.40;99.90;;;;;;5009696;28;20405;-53
2024/01/02 12:39:43;;;;;;;8.77;4.03;;;24.40;99.90;;;;;;5001609;28;20144;-52
2024/01/02 12:42:14;;;;;;;6.75;3.15;;;24.50;99.90;;;;;;5011519;28;20084;-52
2024/01/02 12:44:44;;;;;;;8.98;3.60;;;24.50;99.90;;;;;;5002309;28;20034;-52
2024/01/02 12:47:11;;;;;;;4.93;2.97;;;24.50;99.90;;;;;;5010929;28;20014;-52
2024/01/02 12:49:58;;;;;;;5.82;3.63;;;24.50;99.90;;;;;;5019406;28;20021;-52
2024/01/02 12:52:30;;;;;;;7.80;3.05;;;24.50;99.90;;;;;;4999629;28;20061;-53
2024/01/02 12:54:57;;;;;;;6.45;3.65;;;24.60;99.90;;;;;;5007273;28;20064;-51
2024/01/02 12:57:23;;;;;;;7.68;4.28;;;24.60;99.90;;;;;;5011755;28;20343;-52